createdAt,value
2018-08-13T00:00:01.178Z,17.95
2018-08-13T00:05:05.270Z,17.87
2018-08-13T00:10:09.322Z,17.77
2018-08-13T00:15:12.946Z,17.73
2018-08-13T00:20:16.864Z,17.64
2018-08-13T00:25:20.828Z,17.53
2018-08-13T00:30:29.214Z,17.50
2018-08-13T00:35:32.833Z,17.48
2018-08-13T00:40:36.623Z,17.47
2018-08-13T00:45:40.281Z,17.34
2018-08-13T00:50:43.944Z,17.31
2018-08-13T00:55:47.640Z,17.17
2018-08-13T01:00:51.477Z,17.11
2018-08-13T01:05:55.071Z,17.15
2018-08-13T01:10:59.661Z,17.14
2018-08-13T01:16:03.404Z,17.21
2018-08-13T01:21:07.061Z,17.19
2018-08-13T01:26:10.598Z,17.20
2018-08-13T01:31:15.072Z,17.14
2018-08-13T01:36:18.684Z,17.10
2018-08-13T01:41:22.255Z,16.96
2018-08-13T01:46:25.818Z,16.88
2018-08-13T01:51:29.372Z,16.69
2018-08-13T01:56:32.892Z,16.72
2018-08-13T02:01:36.724Z,16.72
2018-08-13T02:06:40.765Z,16.63
2018-08-13T02:11:44.581Z,16.63
2018-08-13T02:16:48.109Z,16.74
2018-08-13T02:21:51.717Z,16.69
2018-08-13T02:26:55.644Z,16.45
2018-08-13T02:31:59.254Z,16.45
2018-08-13T02:37:02.890Z,16.62
2018-08-13T02:42:06.577Z,16.78
2018-08-13T02:47:10.443Z,16.82
2018-08-13T02:52:14.694Z,16.95
2018-08-13T02:57:18.258Z,17.04
2018-08-13T03:02:22.426Z,17.02
2018-08-13T03:07:26.062Z,16.83
2018-08-13T03:12:29.781Z,16.89
2018-08-13T03:17:33.308Z,16.87
2018-08-13T03:22:37.638Z,16.83
2018-08-13T03:27:41.257Z,16.71
2018-08-13T03:32:45.105Z,16.56
2018-08-13T03:37:48.664Z,16.14
2018-08-13T03:42:52.457Z,16.08
2018-08-13T03:47:57.088Z,15.97
2018-08-13T03:53:00.745Z,15.96
2018-08-13T03:58:04.371Z,15.91
2018-08-13T04:03:08.838Z,16.06
2018-08-13T04:08:13.202Z,16.23
2018-08-13T04:13:16.872Z,16.35
2018-08-13T04:18:20.444Z,16.41
2018-08-13T04:23:24.315Z,16.33
2018-08-13T04:28:27.879Z,16.31
2018-08-13T04:33:33.439Z,16.38
2018-08-13T04:38:37.136Z,16.55
2018-08-13T04:43:40.771Z,16.61
2018-08-13T04:48:44.441Z,16.81
2018-08-13T04:53:48.049Z,17.38
2018-08-13T04:58:52.351Z,17.96
2018-08-13T05:03:56.033Z,18.49
2018-08-13T05:08:59.654Z,18.41
2018-08-13T05:14:03.597Z,18.28
2018-08-13T05:19:07.249Z,18.27
2018-08-13T05:24:10.903Z,18.30
2018-08-13T05:29:14.430Z,18.51
2018-08-13T05:34:18.022Z,18.63
2018-08-13T05:39:21.674Z,18.88
2018-08-13T05:44:25.970Z,19.14
2018-08-13T05:49:29.510Z,19.20
2018-08-13T05:54:33.160Z,19.44
2018-08-13T05:59:36.835Z,19.42
2018-08-13T06:04:40.434Z,19.50
2018-08-13T06:09:44.017Z,19.45
2018-08-13T06:14:47.648Z,19.72
2018-08-13T06:19:51.403Z,20.26
2018-08-13T06:24:55.526Z,20.25
2018-08-13T06:29:59.196Z,20.38
2018-08-13T06:35:02.858Z,20.63
2018-08-13T06:40:07.010Z,20.85
2018-08-13T06:45:11.504Z,20.98
2018-08-13T06:50:15.329Z,21.32
2018-08-13T06:55:18.889Z,21.65
2018-08-13T07:00:33.718Z,21.83
2018-08-13T07:05:37.291Z,21.81
2018-08-13T07:16:05.607Z,21.65
2018-08-13T07:21:10.185Z,21.48
2018-08-13T07:26:13.849Z,21.38
2018-08-13T07:31:17.890Z,21.11
2018-08-13T07:36:21.538Z,21.09
2018-08-13T07:41:25.292Z,21.23
2018-08-13T07:46:28.857Z,21.28
2018-08-13T07:51:32.656Z,20.88
2018-08-13T07:56:36.369Z,20.91
2018-08-13T08:01:39.942Z,20.87
2018-08-13T08:06:43.600Z,20.33
2018-08-13T08:11:47.851Z,20.15
2018-08-13T08:16:51.478Z,20.16
2018-08-13T08:21:55.094Z,19.93
2018-08-13T08:26:58.724Z,19.79
2018-08-13T08:32:02.441Z,20.00
2018-08-13T08:37:06.257Z,19.90
2018-08-13T08:42:10.289Z,20.09
2018-08-13T08:47:14.260Z,20.34
2018-08-13T08:52:19.060Z,20.38
2018-08-13T08:57:23.017Z,20.46
2018-08-13T09:02:26.641Z,20.69
2018-08-13T09:07:30.222Z,20.69
2018-08-13T09:12:36.549Z,21.01
2018-08-13T09:17:53.191Z,21.49
2018-08-13T09:23:08.089Z,21.76
2018-08-13T09:28:23.045Z,22.25
2018-08-13T09:33:37.919Z,22.21
2018-08-13T09:38:42.465Z,22.15
2018-08-13T09:43:46.845Z,22.17
2018-08-13T09:48:51.028Z,22.50
2018-08-13T09:53:54.871Z,22.27
2018-08-13T09:58:58.564Z,22.25
2018-08-13T10:04:02.234Z,21.80
2018-08-13T10:09:09.830Z,22.10
2018-08-13T10:14:13.567Z,22.45
2018-08-13T10:19:20.419Z,22.35
2018-08-13T10:24:25.254Z,22.56
2018-08-13T10:29:29.650Z,22.90
2018-08-13T10:34:35.072Z,22.92
2018-08-13T10:39:38.765Z,22.83
2018-08-13T10:44:44.272Z,23.06
2018-08-13T10:49:48.036Z,23.35
2018-08-13T10:54:51.757Z,23.51
2018-08-13T10:59:56.185Z,23.94
2018-08-13T11:04:59.833Z,23.99
2018-08-13T11:10:07.828Z,23.56
2018-08-13T11:15:17.355Z,23.89
2018-08-13T11:20:21.570Z,24.61
2018-08-13T11:25:25.352Z,25.04
2018-08-13T11:30:30.178Z,24.17
2018-08-13T11:35:34.109Z,24.46
2018-08-13T11:40:37.978Z,24.79
2018-08-13T11:45:42.019Z,25.56
2018-08-13T11:50:46.174Z,25.44
2018-08-13T11:55:49.844Z,26.28
2018-08-13T12:00:53.628Z,26.00
2018-08-13T12:05:59.075Z,25.60
2018-08-13T12:11:03.768Z,25.13
2018-08-13T12:16:08.217Z,25.59
2018-08-13T12:21:12.877Z,24.72
2018-08-13T12:26:16.617Z,24.81
2018-08-13T12:31:20.393Z,25.15
2018-08-13T12:36:24.115Z,25.14
2018-08-13T12:41:27.777Z,24.73
2018-08-13T12:46:31.425Z,24.80
2018-08-13T12:51:35.102Z,24.70
2018-08-13T12:56:39.351Z,25.18
2018-08-13T13:01:43.102Z,25.50
2018-08-13T13:06:46.869Z,25.59
2018-08-13T13:11:50.398Z,25.13
2018-08-13T13:16:54.125Z,25.02
2018-08-13T13:21:57.688Z,24.97
2018-08-13T13:27:01.358Z,25.10
2018-08-13T13:32:05.710Z,25.10
2018-08-13T13:37:09.339Z,24.29
2018-08-13T13:42:13.429Z,23.87
2018-08-13T13:47:17.084Z,23.65
2018-08-13T13:52:20.752Z,23.09
2018-08-13T13:57:24.517Z,23.34
2018-08-13T14:02:28.163Z,23.24
2018-08-13T14:07:31.931Z,22.40
2018-08-13T14:12:35.568Z,22.29
2018-08-13T14:17:40.752Z,22.56
2018-08-13T14:22:46.189Z,23.08
2018-08-13T14:27:49.936Z,22.50
2018-08-13T14:32:54.343Z,22.13
2018-08-13T14:37:58.138Z,22.08
2018-08-13T14:43:01.890Z,22.15
2018-08-13T14:48:06.181Z,22.30
2018-08-13T14:53:10.295Z,22.27
2018-08-13T14:58:14.600Z,22.60
2018-08-13T15:03:18.228Z,22.65
2018-08-13T15:08:22.035Z,22.28
2018-08-13T15:13:25.679Z,22.27
2018-08-13T15:18:29.507Z,22.13
2018-08-13T15:23:33.133Z,22.64
2018-08-13T15:28:36.874Z,23.27
2018-08-13T15:33:40.530Z,23.44
2018-08-13T15:38:44.147Z,23.56
2018-08-13T15:43:48.627Z,22.91
2018-08-13T15:48:53.036Z,22.43
2018-08-13T15:53:56.603Z,22.24
2018-08-13T15:59:00.820Z,22.21
2018-08-13T16:04:04.519Z,22.22
2018-08-13T16:09:17.965Z,22.19
2018-08-13T16:14:21.478Z,22.08
2018-08-13T16:19:25.122Z,21.74
2018-08-13T16:24:28.838Z,21.91
2018-08-13T16:29:32.631Z,21.83
2018-08-13T16:34:36.438Z,21.54
2018-08-13T16:39:40.989Z,21.43
2018-08-13T16:44:44.734Z,21.67
2018-08-13T16:49:48.483Z,21.96
2018-08-13T16:54:52.470Z,22.19
2018-08-13T16:59:56.119Z,22.61
2018-08-13T17:04:59.766Z,21.85
2018-08-13T17:10:03.373Z,21.31
2018-08-13T17:15:08.783Z,21.11
2018-08-13T17:20:15.382Z,21.02
2018-08-13T17:25:18.990Z,21.90
2018-08-13T17:30:31.207Z,22.96
2018-08-13T17:35:35.974Z,23.36
2018-08-13T17:40:39.735Z,23.25
2018-08-13T17:45:43.375Z,22.03
2018-08-13T17:50:47.032Z,21.58
2018-08-13T17:55:50.704Z,21.21
2018-08-13T18:00:54.498Z,20.87
2018-08-13T18:05:58.657Z,20.75
2018-08-13T18:11:02.339Z,20.86
2018-08-13T18:16:06.253Z,20.97
2018-08-13T18:21:09.973Z,20.92
2018-08-13T18:26:13.673Z,20.74
2018-08-13T18:31:17.529Z,20.58
2018-08-13T18:36:21.157Z,20.46
2018-08-13T18:41:24.857Z,20.38
2018-08-13T18:46:29.560Z,20.13
2018-08-13T18:51:34.317Z,20.23
2018-08-13T18:56:39.198Z,20.02
2018-08-13T19:01:43.526Z,19.81
2018-08-13T19:06:48.293Z,19.76
2018-08-13T19:11:53.323Z,19.63
2018-08-13T19:16:58.269Z,19.43
2018-08-13T19:22:04.932Z,19.16
2018-08-13T19:27:11.767Z,19.14
2018-08-13T19:32:17.234Z,19.06
2018-08-13T19:37:20.982Z,18.98
2018-08-13T19:42:25.392Z,18.79
2018-08-13T19:47:30.749Z,18.87
2018-08-13T19:52:35.420Z,18.72
2018-08-13T19:57:39.875Z,18.77
2018-08-13T20:02:43.787Z,18.59
2018-08-13T20:07:49.520Z,18.55
2018-08-13T20:12:54.232Z,18.44
2018-08-13T20:17:58.081Z,18.46
2018-08-13T20:23:03.099Z,18.48
2018-08-13T20:28:06.948Z,18.36
2018-08-13T20:33:12.612Z,18.31
2018-08-13T20:38:16.740Z,18.34
2018-08-13T20:43:20.580Z,18.34
2018-08-13T20:48:25.127Z,18.33
2018-08-13T20:53:29.520Z,18.36
2018-08-13T20:58:33.094Z,18.33
2018-08-13T21:03:37.393Z,18.33
2018-08-13T21:08:41.416Z,18.45
2018-08-13T21:13:45.210Z,18.39
2018-08-13T21:18:48.985Z,18.33
2018-08-13T21:23:53.006Z,18.23
2018-08-13T21:28:57.630Z,18.28
2018-08-13T21:34:02.129Z,18.23
2018-08-13T21:39:07.951Z,18.12
2018-08-13T21:44:11.892Z,17.99
2018-08-13T21:49:15.964Z,18.03
2018-08-13T21:54:19.695Z,18.07
2018-08-13T21:59:23.375Z,18.04
2018-08-13T22:04:27.473Z,17.98
2018-08-13T22:09:31.032Z,17.97
2018-08-13T22:14:34.832Z,17.85
2018-08-13T22:19:38.485Z,17.84
2018-08-13T22:24:53.211Z,17.90
2018-08-13T22:29:56.886Z,17.91
2018-08-13T22:35:00.607Z,17.90
2018-08-13T22:40:04.659Z,17.87
2018-08-13T22:45:09.160Z,17.87
2018-08-13T22:50:12.962Z,17.78
2018-08-13T22:55:17.862Z,17.65
2018-08-13T23:00:26.745Z,17.62
2018-08-13T23:05:30.382Z,17.54
2018-08-13T23:10:34.080Z,17.35
2018-08-13T23:15:37.833Z,17.41
2018-08-13T23:20:42.286Z,17.35
2018-08-13T23:25:46.040Z,17.25
2018-08-13T23:30:49.626Z,17.30
2018-08-13T23:35:53.294Z,17.29
2018-08-13T23:40:57.020Z,17.14
2018-08-13T23:46:00.719Z,17.19
2018-08-13T23:51:04.445Z,17.38
2018-08-13T23:56:08.177Z,17.37
